sensor_id;sensor_type;location;lat;lon;timestamp;P1;durP1;ratioP1;P2;durP2;ratioP2
7575;SDS011;3829;50.798;4.358;2023-11-18T00:02:23;35.73;;;15.17;;
7575;SDS011;3829;50.798;4.358;2023-11-18T00:04:50;27.03;;;14.70;;
7575;SDS011;3829;50.798;4.358;2023-11-18T00:07:16;31.43;;;14.90;;
7575;SDS011;3829;50.798;4.358;2023-11-18T00:09:42;28.47;;;14.17;;
7575;SDS011;3829;50.798;4.358;2023-11-18T00:12:13;31.20;;;15.50;;
7575;SDS011;3829;50.798;4.358;2023-11-18T00:14:39;31.40;;;15.83;;
7575;SDS011;3829;50.798;4.358;2023-11-18T00:17:07;27.30;;;14.60;;
7575;SDS011;3829;50.798;4.358;2023-11-18T00:19:33;34.70;;;16.77;;
7575;SDS011;3829;50.798;4.358;2023-11-18T00:21:59;32.13;;;15.43;;
7575;SDS011;3829;50.798;4.358;2023-11-18T00:24:25;33.67;;;17.13;;
7575;SDS011;3829;50.798;4.358;2023-11-18T00:26:50;30.43;;;15.97;;
7575;SDS011;3829;50.798;4.358;2023-11-18T00:29:16;38.63;;;15.83;;
7575;SDS011;3829;50.798;4.358;2023-11-18T00:31:42;31.47;;;16.87;;
7575;SDS011;3829;50.798;4.358;2023-11-18T00:34:07;39.87;;;16.53;;
7575;SDS011;3829;50.798;4.358;2023-11-18T00:36:33;30.13;;;16.13;;
7575;SDS011;3829;50.798;4.358;2023-11-18T00:38:58;27.03;;;14.87;;
7575;SDS011;3829;50.798;4.358;2023-11-18T00:41:24;29.87;;;13.83;;
7575;SDS011;3829;50.798;4.358;2023-11-18T00:43:50;31.97;;;15.30;;
7575;SDS011;3829;50.798;4.358;2023-11-18T00:46:15;30.53;;;15.17;;
7575;SDS011;3829;50.798;4.358;2023-11-18T00:48:41;33.83;;;15.40;;
7575;SDS011;3829;50.798;4.358;2023-11-18T00:51:07;22.10;;;12.97;;
7575;SDS011;3829;50.798;4.358;2023-11-18T00:53:33;24.73;;;14.63;;
7575;SDS011;3829;50.798;4.358;2023-11-18T00:55:58;26.53;;;12.40;;
7575;SDS011;3829;50.798;4.358;2023-11-18T00:58:24;30.90;;;12.97;;
7575;SDS011;3829;50.798;4.358;2023-11-18T01:00:50;27.47;;;13.97;;
7575;SDS011;3829;50.798;4.358;2023-11-18T01:03:15;22.53;;;13.23;;
7575;SDS011;3829;50.798;4.358;2023-11-18T01:05:41;29.70;;;13.37;;
7575;SDS011;3829;50.798;4.358;2023-11-18T01:08:06;26.13;;;13.73;;
7575;SDS011;3829;50.798;4.358;2023-11-18T01:10:33;26.63;;;14.13;;
7575;SDS011;3829;50.798;4.358;2023-11-18T01:13:02;29.80;;;12.83;;
7575;SDS011;3829;50.798;4.358;2023-11-18T01:15:28;23.23;;;13.50;;
7575;SDS011;3829;50.798;4.358;2023-11-18T01:17:56;27.87;;;12.43;;
7575;SDS011;3829;50.798;4.358;2023-11-18T01:20:22;20.17;;;11.80;;
7575;SDS011;3829;50.798;4.358;2023-11-18T01:22:48;20.70;;;11.23;;
7575;SDS011;3829;50.798;4.358;2023-11-18T01:25:14;20.93;;;10.30;;
7575;SDS011;3829;50.798;4.358;2023-11-18T01:27:44;19.10;;;9.87;;
7575;SDS011;3829;50.798;4.358;2023-11-18T01:30:13;22.63;;;9.87;;
7575;SDS011;3829;50.798;4.358;2023-11-18T01:32:39;18.47;;;9.93;;
7575;SDS011;3829;50.798;4.358;2023-11-18T01:35:05;19.33;;;10.90;;
7575;SDS011;3829;50.798;4.358;2023-11-18T01:37:33;17.30;;;10.77;;
7575;SDS011;3829;50.798;4.358;2023-11-18T01:39:58;18.03;;;10.00;;
7575;SDS011;3829;50.798;4.358;2023-11-18T01:42:24;17.23;;;10.40;;
7575;SDS011;3829;50.798;4.358;2023-11-18T01:44:49;20.63;;;10.20;;
7575;SDS011;3829;50.798;4.358;2023-11-18T01:47:16;16.13;;;9.53;;
7575;SDS011;3829;50.798;4.358;2023-11-18T01:49:41;18.10;;;10.10;;
7575;SDS011;3829;50.798;4.358;2023-11-18T01:52:08;19.97;;;9.60;;
7575;SDS011;3829;50.798;4.358;2023-11-18T01:54:36;20.60;;;10.03;;
7575;SDS011;3829;50.798;4.358;2023-11-18T01:57:03;12.17;;;8.53;;
7575;SDS011;3829;50.798;4.358;2023-11-18T01:59:31;16.33;;;8.67;;
7575;SDS011;3829;50.798;4.358;2023-11-18T02:01:58;19.40;;;8.53;;
7575;SDS011;3829;50.798;4.358;2023-11-18T02:04:25;22.67;;;9.63;;
7575;SDS011;3829;50.798;4.358;2023-11-18T02:06:51;24.10;;;9.53;;
7575;SDS011;3829;50.798;4.358;2023-11-18T02:09:21;17.57;;;8.63;;
7575;SDS011;3829;50.798;4.358;2023-11-18T02:12:04;13.90;;;9.00;;
7575;SDS011;3829;50.798;4.358;2023-11-18T02:14:45;17.23;;;8.63;;
7575;SDS011;3829;50.798;4.358;2023-11-18T02:17:12;21.60;;;9.97;;
7575;SDS011;3829;50.798;4.358;2023-11-18T02:19:40;16.30;;;8.13;;
7575;SDS011;3829;50.798;4.358;2023-11-18T02:22:07;17.83;;;8.40;;
7575;SDS011;3829;50.798;4.358;2023-11-18T02:24:35;18.50;;;8.10;;
7575;SDS011;3829;50.798;4.358;2023-11-18T02:27:02;19.17;;;8.07;;
7575;SDS011;3829;50.798;4.358;2023-11-18T02:29:33;16.27;;;8.10;;
7575;SDS011;3829;50.798;4.358;2023-11-18T02:32:03;14.33;;;7.67;;
7575;SDS011;3829;50.798;4.358;2023-11-18T02:35:00;18.67;;;6.60;;
7575;SDS011;3829;50.798;4.358;2023-11-18T02:37:35;12.77;;;6.40;;
7575;SDS011;3829;50.798;4.358;2023-11-18T02:40:05;17.40;;;6.77;;
7575;SDS011;3829;50.798;4.358;2023-11-18T02:42:36;11.10;;;6.23;;
7575;SDS011;3829;50.798;4.358;2023-11-18T02:45:03;11.90;;;6.17;;
7575;SDS011;3829;50.798;4.358;2023-11-18T02:47:32;19.27;;;6.53;;
7575;SDS011;3829;50.798;4.358;2023-11-18T02:49:58;15.53;;;6.53;;
7575;SDS011;3829;50.798;4.358;2023-11-18T02:52:30;14.73;;;5.73;;
7575;SDS011;3829;50.798;4.358;2023-11-18T02:54:56;14.13;;;5.27;;
7575;SDS011;3829;50.798;4.358;2023-11-18T02:57:21;11.13;;;5.57;;
7575;SDS011;3829;50.798;4.358;2023-11-18T02:59:47;13.27;;;5.70;;
7575;SDS011;3829;50.798;4.358;2023-11-18T03:02:13;12.13;;;5.53;;
7575;SDS011;3829;50.798;4.358;2023-11-18T03:04:40;14.73;;;4.97;;
7575;SDS011;3829;50.798;4.358;2023-11-18T03:07:09;13.77;;;4.97;;
7575;SDS011;3829;50.798;4.358;2023-11-18T03:09:35;10.37;;;5.63;;
7575;SDS011;3829;50.798;4.358;2023-11-18T03:12:05;18.80;;;5.20;;
7575;SDS011;3829;50.798;4.358;2023-11-18T03:14:33;13.73;;;5.07;;
7575;SDS011;3829;50.798;4.358;2023-11-18T03:16:59;12.53;;;4.63;;
7575;SDS011;3829;50.798;4.358;2023-11-18T03:19:26;14.77;;;4.53;;
7575;SDS011;3829;50.798;4.358;2023-11-18T03:21:52;13.57;;;5.13;;
7575;SDS011;3829;50.798;4.358;2023-11-18T03:24:18;13.07;;;4.90;;
7575;SDS011;3829;50.798;4.358;2023-11-18T03:26:44;8.53;;;4.70;;
7575;SDS011;3829;50.798;4.358;2023-11-18T03:29:09;13.23;;;4.80;;
7575;SDS011;3829;50.798;4.358;2023-11-18T03:31:38;11.47;;;4.20;;
7575;SDS011;3829;50.798;4.358;2023-11-18T03:34:04;12.07;;;4.83;;
7575;SDS011;3829;50.798;4.358;2023-11-18T03:36:29;14.63;;;4.77;;
7575;SDS011;3829;50.798;4.358;2023-11-18T03:38:55;11.60;;;4.73;;
7575;SDS011;3829;50.798;4.358;2023-11-18T03:41:20;11.33;;;4.30;;
7575;SDS011;3829;50.798;4.358;2023-11-18T03:43:49;9.40;;;4.77;;
7575;SDS011;3829;50.798;4.358;2023-11-18T03:46:14;12.20;;;5.33;;
7575;SDS011;3829;50.798;4.358;2023-11-18T03:48:40;9.83;;;4.20;;
7575;SDS011;3829;50.798;4.358;2023-11-18T03:51:09;10.40;;;4.23;;
7575;SDS011;3829;50.798;4.358;2023-11-18T03:53:34;12.03;;;4.60;;
7575;SDS011;3829;50.798;4.358;2023-11-18T03:56:00;12.47;;;4.10;;
7575;SDS011;3829;50.798;4.358;2023-11-18T03:58:27;15.03;;;3.90;;
7575;SDS011;3829;50.798;4.358;2023-11-18T04:00:53;12.30;;;3.90;;
7575;SDS011;3829;50.798;4.358;2023-11-18T04:03:19;10.60;;;4.37;;
7575;SDS011;3829;50.798;4.358;2023-11-18T04:05:44;17.63;;;4.37;;
7575;SDS011;3829;50.798;4.358;2023-11-18T04:08:10;10.77;;;3.97;;
7575;SDS011;3829;50.798;4.358;2023-11-18T04:10:36;11.83;;;4.00;;
7575;SDS011;3829;50.798;4.358;2023-11-18T04:13:02;11.80;;;4.17;;
7575;SDS011;3829;50.798;4.358;2023-11-18T04:15:29;12.60;;;4.63;;
7575;SDS011;3829;50.798;4.358;2023-11-18T04:17:55;11.67;;;4.30;;
7575;SDS011;3829;50.798;4.358;2023-11-18T04:20:20;11.40;;;3.83;;
7575;SDS011;3829;50.798;4.358;2023-11-18T04:22:46;9.63;;;3.60;;
7575;SDS011;3829;50.798;4.358;2023-11-18T04:25:12;13.27;;;4.37;;
7575;SDS011;3829;50.798;4.358;2023-11-18T04:27:38;12.77;;;4.17;;
7575;SDS011;3829;50.798;4.358;2023-11-18T04:30:04;11.80;;;4.03;;
7575;SDS011;3829;50.798;4.358;2023-11-18T04:32:30;17.50;;;4.10;;
7575;SDS011;3829;50.798;4.358;2023-11-18T04:34:58;15.70;;;3.70;;
7575;SDS011;3829;50.798;4.358;2023-11-18T04:37:24;10.37;;;3.20;;
7575;SDS011;3829;50.798;4.358;2023-11-18T04:39:50;14.50;;;3.30;;
7575;SDS011;3829;50.798;4.358;2023-11-18T04:42:17;13.20;;;3.33;;
7575;SDS011;3829;50.798;4.358;2023-11-18T04:44:43;11.17;;;4.00;;
7575;SDS011;3829;50.798;4.358;2023-11-18T04:47:09;10.30;;;3.10;;
7575;SDS011;3829;50.798;4.358;2023-11-18T04:49:36;12.70;;;3.63;;
7575;SDS011;3829;50.798;4.358;2023-11-18T04:52:01;14.07;;;3.90;;
7575;SDS011;3829;50.798;4.358;2023-11-18T04:54:27;8.47;;;3.27;;
7575;SDS011;3829;50.798;4.358;2023-11-18T04:56:53;13.53;;;3.10;;
7575;SDS011;3829;50.798;4.358;2023-11-18T04:59:19;7.23;;;3.00;;
7575;SDS011;3829;50.798;4.358;2023-11-18T05:01:44;7.13;;;2.70;;
7575;SDS011;3829;50.798;4.358;2023-11-18T05:04:10;8.53;;;3.00;;
7575;SDS011;3829;50.798;4.358;2023-11-18T05:06:36;14.20;;;3.20;;
7575;SDS011;3829;50.798;4.358;2023-11-18T05:09:01;8.83;;;3.93;;
7575;SDS011;3829;50.798;4.358;2023-11-18T05:11:27;7.07;;;2.87;;
7575;SDS011;3829;50.798;4.358;2023-11-18T05:13:53;8.90;;;2.93;;
7575;SDS011;3829;50.798;4.358;2023-11-18T05:16:19;11.77;;;3.20;;
7575;SDS011;3829;50.798;4.358;2023-11-18T05:18:44;21.27;;;5.97;;
7575;SDS011;3829;50.798;4.358;2023-11-18T05:21:10;9.30;;;3.00;;
7575;SDS011;3829;50.798;4.358;2023-11-18T05:23:36;9.80;;;3.33;;
7575;SDS011;3829;50.798;4.358;2023-11-18T05:26:01;10.20;;;3.27;;
7575;SDS011;3829;50.798;4.358;2023-11-18T05:28:30;8.27;;;2.60;;
7575;SDS011;3829;50.798;4.358;2023-11-18T05:30:56;16.00;;;3.73;;
7575;SDS011;3829;50.798;4.358;2023-11-18T05:33:26;7.73;;;3.63;;
7575;SDS011;3829;50.798;4.358;2023-11-18T05:35:53;11.40;;;3.40;;
7575;SDS011;3829;50.798;4.358;2023-11-18T05:38:19;11.33;;;2.90;;
7575;SDS011;3829;50.798;4.358;2023-11-18T05:40:47;8.60;;;2.80;;
7575;SDS011;3829;50.798;4.358;2023-11-18T05:43:21;8.03;;;3.10;;
7575;SDS011;3829;50.798;4.358;2023-11-18T05:45:49;7.23;;;3.30;;
7575;SDS011;3829;50.798;4.358;2023-11-18T05:48:25;6.77;;;3.30;;
7575;SDS011;3829;50.798;4.358;2023-11-18T05:50:50;10.80;;;3.60;;
7575;SDS011;3829;50.798;4.358;2023-11-18T05:53:16;11.83;;;3.33;;
7575;SDS011;3829;50.798;4.358;2023-11-18T05:55:42;12.77;;;3.63;;
7575;SDS011;3829;50.798;4.358;2023-11-18T05:58:07;10.23;;;2.93;;
7575;SDS011;3829;50.798;4.358;2023-11-18T06:00:34;9.57;;;3.00;;
7575;SDS011;3829;50.798;4.358;2023-11-18T06:02:59;10.53;;;3.03;;
7575;SDS011;3829;50.798;4.358;2023-11-18T06:05:25;7.20;;;2.77;;
7575;SDS011;3829;50.798;4.358;2023-11-18T06:07:54;7.13;;;2.83;;
7575;SDS011;3829;50.798;4.358;2023-11-18T06:10:20;13.33;;;3.40;;
7575;SDS011;3829;50.798;4.358;2023-11-18T06:12:45;15.87;;;3.00;;
7575;SDS011;3829;50.798;4.358;2023-11-18T06:15:11;9.63;;;3.37;;
7575;SDS011;3829;50.798;4.358;2023-11-18T06:17:39;8.93;;;3.10;;
7575;SDS011;3829;50.798;4.358;2023-11-18T06:20:05;6.73;;;3.60;;
7575;SDS011;3829;50.798;4.358;2023-11-18T06:22:31;11.63;;;3.67;;
7575;SDS011;3829;50.798;4.358;2023-11-18T06:24:57;7.00;;;3.07;;
7575;SDS011;3829;50.798;4.358;2023-11-18T06:27:22;5.33;;;2.93;;
7575;SDS011;3829;50.798;4.358;2023-11-18T06:29:49;15.00;;;3.10;;
7575;SDS011;3829;50.798;4.358;2023-11-18T06:32:15;8.60;;;3.10;;
7575;SDS011;3829;50.798;4.358;2023-11-18T06:34:41;8.13;;;3.10;;
7575;SDS011;3829;50.798;4.358;2023-11-18T06:37:06;9.90;;;3.00;;
7575;SDS011;3829;50.798;4.358;2023-11-18T06:39:32;8.07;;;2.90;;
7575;SDS011;3829;50.798;4.358;2023-11-18T06:42:00;13.47;;;3.13;;
7575;SDS011;3829;50.798;4.358;2023-11-18T06:44:27;15.67;;;3.30;;
7575;SDS011;3829;50.798;4.358;2023-11-18T06:46:54;9.03;;;3.30;;
7575;SDS011;3829;50.798;4.358;2023-11-18T06:49:20;9.90;;;3.20;;
7575;SDS011;3829;50.798;4.358;2023-11-18T06:51:45;9.00;;;3.17;;
7575;SDS011;3829;50.798;4.358;2023-11-18T06:54:11;9.03;;;3.20;;
7575;SDS011;3829;50.798;4.358;2023-11-18T06:56:39;9.57;;;2.90;;
7575;SDS011;3829;50.798;4.358;2023-11-18T06:59:07;10.17;;;3.83;;
7575;SDS011;3829;50.798;4.358;2023-11-18T07:01:35;13.27;;;2.83;;
7575;SDS011;3829;50.798;4.358;2023-11-18T07:04:01;9.90;;;3.43;;
7575;SDS011;3829;50.798;4.358;2023-11-18T07:06:27;12.03;;;2.87;;
7575;SDS011;3829;50.798;4.358;2023-11-18T07:08:53;8.23;;;3.23;;
7575;SDS011;3829;50.798;4.358;2023-11-18T07:11:25;7.10;;;3.47;;
7575;SDS011;3829;50.798;4.358;2023-11-18T07:13:51;11.73;;;3.20;;
7575;SDS011;3829;50.798;4.358;2023-11-18T07:16:21;11.20;;;3.77;;
7575;SDS011;3829;50.798;4.358;2023-11-18T07:18:49;9.63;;;2.87;;
7575;SDS011;3829;50.798;4.358;2023-11-18T07:21:14;8.87;;;3.03;;
7575;SDS011;3829;50.798;4.358;2023-11-18T07:23:40;8.70;;;3.40;;
7575;SDS011;3829;50.798;4.358;2023-11-18T07:26:07;11.23;;;4.03;;
7575;SDS011;3829;50.798;4.358;2023-11-18T07:28:34;11.27;;;4.00;;
7575;SDS011;3829;50.798;4.358;2023-11-18T07:31:01;9.53;;;4.00;;
7575;SDS011;3829;50.798;4.358;2023-11-18T07:33:29;12.83;;;4.27;;
7575;SDS011;3829;50.798;4.358;2023-11-18T07:35:57;13.97;;;4.53;;
7575;SDS011;3829;50.798;4.358;2023-11-18T07:38:23;12.87;;;4.23;;
7575;SDS011;3829;50.798;4.358;2023-11-18T07:40:49;10.60;;;4.90;;
7575;SDS011;3829;50.798;4.358;2023-11-18T07:43:17;9.90;;;4.97;;
7575;SDS011;3829;50.798;4.358;2023-11-18T07:45:46;8.80;;;4.33;;
7575;SDS011;3829;50.798;4.358;2023-11-18T07:48:15;16.80;;;5.80;;
7575;SDS011;3829;50.798;4.358;2023-11-18T07:50:42;15.93;;;5.57;;
7575;SDS011;3829;50.798;4.358;2023-11-18T07:53:09;14.53;;;5.53;;
7575;SDS011;3829;50.798;4.358;2023-11-18T07:55:35;23.50;;;5.70;;
7575;SDS011;3829;50.798;4.358;2023-11-18T07:58:04;12.67;;;6.07;;
7575;SDS011;3829;50.798;4.358;2023-11-18T08:00:37;13.67;;;5.67;;
7575;SDS011;3829;50.798;4.358;2023-11-18T08:03:05;18.27;;;6.60;;
7575;SDS011;3829;50.798;4.358;2023-11-18T08:05:37;16.50;;;7.47;;
7575;SDS011;3829;50.798;4.358;2023-11-18T08:08:05;15.13;;;6.53;;
7575;SDS011;3829;50.798;4.358;2023-11-18T08:10:32;11.30;;;6.60;;
7575;SDS011;3829;50.798;4.358;2023-11-18T08:12:58;14.63;;;7.03;;
7575;SDS011;3829;50.798;4.358;2023-11-18T08:15:24;15.27;;;7.00;;
7575;SDS011;3829;50.798;4.358;2023-11-18T08:17:52;19.53;;;7.00;;
7575;SDS011;3829;50.798;4.358;2023-11-18T08:20:18;19.07;;;7.07;;
7575;SDS011;3829;50.798;4.358;2023-11-18T08:22:46;11.97;;;6.60;;
7575;SDS011;3829;50.798;4.358;2023-11-18T08:25:11;17.17;;;7.13;;
7575;SDS011;3829;50.798;4.358;2023-11-18T08:27:38;22.77;;;7.90;;
7575;SDS011;3829;50.798;4.358;2023-11-18T08:30:05;18.90;;;7.67;;
7575;SDS011;3829;50.798;4.358;2023-11-18T08:32:36;15.13;;;8.80;;
7575;SDS011;3829;50.798;4.358;2023-11-18T08:35:03;17.93;;;7.60;;
7575;SDS011;3829;50.798;4.358;2023-11-18T08:37:32;12.90;;;7.57;;
7575;SDS011;3829;50.798;4.358;2023-11-18T08:40:00;17.80;;;7.83;;
7575;SDS011;3829;50.798;4.358;2023-11-18T08:42:27;13.10;;;7.30;;
7575;SDS011;3829;50.798;4.358;2023-11-18T08:44:56;15.67;;;7.97;;
7575;SDS011;3829;50.798;4.358;2023-11-18T08:47:24;20.07;;;8.27;;
7575;SDS011;3829;50.798;4.358;2023-11-18T08:49:50;19.17;;;8.97;;
7575;SDS011;3829;50.798;4.358;2023-11-18T08:52:15;14.00;;;8.67;;
7575;SDS011;3829;50.798;4.358;2023-11-18T08:54:43;18.03;;;8.70;;
7575;SDS011;3829;50.798;4.358;2023-11-18T08:57:29;19.90;;;8.37;;
7575;SDS011;3829;50.798;4.358;2023-11-18T09:00:14;17.47;;;7.97;;
7575;SDS011;3829;50.798;4.358;2023-11-18T09:02:50;17.77;;;7.70;;
7575;SDS011;3829;50.798;4.358;2023-11-18T09:05:21;21.23;;;8.30;;
7575;SDS011;3829;50.798;4.358;2023-11-18T09:07:47;16.57;;;7.83;;
7575;SDS011;3829;50.798;4.358;2023-11-18T09:10:15;20.30;;;7.73;;
7575;SDS011;3829;50.798;4.358;2023-11-18T09:12:42;14.57;;;7.37;;
7575;SDS011;3829;50.798;4.358;2023-11-18T09:15:10;18.00;;;7.70;;
7575;SDS011;3829;50.798;4.358;2023-11-18T09:17:43;14.00;;;6.97;;
7575;SDS011;3829;50.798;4.358;2023-11-18T09:20:10;15.60;;;7.00;;
7575;SDS011;3829;50.798;4.358;2023-11-18T09:22:36;17.47;;;7.03;;
7575;SDS011;3829;50.798;4.358;2023-11-18T09:25:02;12.10;;;7.17;;
7575;SDS011;3829;50.798;4.358;2023-11-18T09:27:34;14.77;;;7.50;;
7575;SDS011;3829;50.798;4.358;2023-11-18T09:29:59;17.77;;;6.90;;
7575;SDS011;3829;50.798;4.358;2023-11-18T09:32:25;14.00;;;7.27;;
7575;SDS011;3829;50.798;4.358;2023-11-18T09:34:51;16.90;;;7.13;;
7575;SDS011;3829;50.798;4.358;2023-11-18T09:37:18;17.53;;;7.07;;
7575;SDS011;3829;50.798;4.358;2023-11-18T09:39:43;14.50;;;7.80;;
7575;SDS011;3829;50.798;4.358;2023-11-18T09:42:10;15.07;;;7.67;;
7575;SDS011;3829;50.798;4.358;2023-11-18T09:44:39;15.63;;;7.10;;
7575;SDS011;3829;50.798;4.358;2023-11-18T09:47:07;15.67;;;7.03;;
7575;SDS011;3829;50.798;4.358;2023-11-18T09:49:37;17.33;;;8.23;;
7575;SDS011;3829;50.798;4.358;2023-11-18T09:52:09;11.90;;;7.17;;
7575;SDS011;3829;50.798;4.358;2023-11-18T09:54:45;14.33;;;7.40;;
7575;SDS011;3829;50.798;4.358;2023-11-18T09:57:31;15.80;;;7.03;;
7575;SDS011;3829;50.798;4.358;2023-11-18T10:00:02;13.90;;;6.30;;
7575;SDS011;3829;50.798;4.358;2023-11-18T10:02:39;18.07;;;7.23;;
7575;SDS011;3829;50.798;4.358;2023-11-18T10:05:06;17.23;;;7.93;;
7575;SDS011;3829;50.798;4.358;2023-11-18T10:07:38;16.27;;;7.53;;
7575;SDS011;3829;50.798;4.358;2023-11-18T10:10:06;14.37;;;7.40;;
7575;SDS011;3829;50.798;4.358;2023-11-18T10:12:41;11.30;;;7.53;;
7575;SDS011;3829;50.798;4.358;2023-11-18T10:15:10;15.50;;;7.30;;
7575;SDS011;3829;50.798;4.358;2023-11-18T10:17:41;13.43;;;7.40;;
7575;SDS011;3829;50.798;4.358;2023-11-18T10:20:20;13.23;;;7.17;;
7575;SDS011;3829;50.798;4.358;2023-11-18T10:23:00;9.13;;;6.67;;
7575;SDS011;3829;50.798;4.358;2023-11-18T10:25:32;10.23;;;7.10;;
7575;SDS011;3829;50.798;4.358;2023-11-18T10:28:00;10.47;;;7.17;;
7575;SDS011;3829;50.798;4.358;2023-11-18T10:30:27;14.30;;;7.40;;
7575;SDS011;3829;50.798;4.358;2023-11-18T10:32:58;15.57;;;6.90;;
7575;SDS011;3829;50.798;4.358;2023-11-18T10:35:32;13.03;;;6.60;;
7575;SDS011;3829;50.798;4.358;2023-11-18T10:38:01;10.83;;;6.60;;
7575;SDS011;3829;50.798;4.358;2023-11-18T10:40:31;12.10;;;6.13;;
7575;SDS011;3829;50.798;4.358;2023-11-18T10:43:00;9.13;;;6.33;;
7575;SDS011;3829;50.798;4.358;2023-11-18T10:45:26;12.37;;;5.83;;
7575;SDS011;3829;50.798;4.358;2023-11-18T10:47:52;13.03;;;6.50;;
7575;SDS011;3829;50.798;4.358;2023-11-18T10:50:22;10.53;;;6.43;;
7575;SDS011;3829;50.798;4.358;2023-11-18T10:52:47;13.27;;;5.50;;
7575;SDS011;3829;50.798;4.358;2023-11-18T10:55:13;7.30;;;4.87;;
7575;SDS011;3829;50.798;4.358;2023-11-18T10:57:44;6.73;;;4.73;;
7575;SDS011;3829;50.798;4.358;2023-11-18T11:00:10;8.80;;;4.60;;
7575;SDS011;3829;50.798;4.358;2023-11-18T11:02:38;7.93;;;4.53;;
7575;SDS011;3829;50.798;4.358;2023-11-18T11:05:06;9.20;;;4.33;;
7575;SDS011;3829;50.798;4.358;2023-11-18T11:07:33;6.40;;;4.40;;
7575;SDS011;3829;50.798;4.358;2023-11-18T11:10:00;8.57;;;4.10;;
7575;SDS011;3829;50.798;4.358;2023-11-18T11:12:29;7.33;;;4.03;;
7575;SDS011;3829;50.798;4.358;2023-11-18T11:15:01;7.07;;;3.50;;
7575;SDS011;3829;50.798;4.358;2023-11-18T11:17:38;4.83;;;3.60;;
7575;SDS011;3829;50.798;4.358;2023-11-18T11:20:08;6.07;;;2.80;;
7575;SDS011;3829;50.798;4.358;2023-11-18T11:22:46;5.27;;;3.17;;
7575;SDS011;3829;50.798;4.358;2023-11-18T11:25:24;5.97;;;2.53;;
7575;SDS011;3829;50.798;4.358;2023-11-18T11:28:10;4.70;;;2.60;;
7575;SDS011;3829;50.798;4.358;2023-11-18T11:33:29;2.63;;;2.13;;
7575;SDS011;3829;50.798;4.358;2023-11-18T11:36:05;5.70;;;2.07;;
7575;SDS011;3829;50.798;4.358;2023-11-18T11:38:37;4.63;;;3.00;;
7575;SDS011;3829;50.798;4.358;2023-11-18T11:41:03;4.40;;;2.90;;
7575;SDS011;3829;50.798;4.358;2023-11-18T11:43:30;2.93;;;2.13;;
7575;SDS011;3829;50.798;4.358;2023-11-18T11:45:59;4.20;;;1.80;;
7575;SDS011;3829;50.798;4.358;2023-11-18T11:48:35;7.40;;;2.30;;
7575;SDS011;3829;50.798;4.358;2023-11-18T11:54:04;2.77;;;2.00;;
7575;SDS011;3829;50.798;4.358;2023-11-18T11:56:42;3.60;;;2.07;;
7575;SDS011;3829;50.798;4.358;2023-11-18T11:59:08;3.13;;;2.00;;
7575;SDS011;3829;50.798;4.358;2023-11-18T12:01:36;5.20;;;2.20;;
7575;SDS011;3829;50.798;4.358;2023-11-18T12:04:03;2.90;;;1.90;;
7575;SDS011;3829;50.798;4.358;2023-11-18T12:06:42;2.00;;;1.80;;
7575;SDS011;3829;50.798;4.358;2023-11-18T12:09:09;2.83;;;1.97;;
7575;SDS011;3829;50.798;4.358;2023-11-18T12:11:35;4.27;;;2.30;;
7575;SDS011;3829;50.798;4.358;2023-11-18T12:14:05;4.40;;;2.03;;
7575;SDS011;3829;50.798;4.358;2023-11-18T12:19:39;4.67;;;2.67;;
7575;SDS011;3829;50.798;4.358;2023-11-18T12:22:15;3.10;;;2.30;;
7575;SDS011;3829;50.798;4.358;2023-11-18T12:24:44;1.73;;;1.63;;
7575;SDS011;3829;50.798;4.358;2023-11-18T12:27:13;4.13;;;2.37;;
7575;SDS011;3829;50.798;4.358;2023-11-18T12:29:42;2.17;;;1.90;;
7575;SDS011;3829;50.798;4.358;2023-11-18T12:32:09;2.90;;;1.90;;
7575;SDS011;3829;50.798;4.358;2023-11-18T12:40:09;1.70;;;1.60;;
7575;SDS011;3829;50.798;4.358;2023-11-18T12:43:02;2.23;;;1.50;;
7575;SDS011;3829;50.798;4.358;2023-11-18T12:45:42;1.47;;;1.37;;
7575;SDS011;3829;50.798;4.358;2023-11-18T12:48:10;2.53;;;1.53;;
7575;SDS011;3829;50.798;4.358;2023-11-18T12:50:40;1.70;;;1.30;;
7575;SDS011;3829;50.798;4.358;2023-11-18T12:53:08;1.97;;;1.50;;
7575;SDS011;3829;50.798;4.358;2023-11-18T12:55:35;1.93;;;1.33;;
7575;SDS011;3829;50.798;4.358;2023-11-18T12:58:01;1.70;;;1.40;;
7575;SDS011;3829;50.798;4.358;2023-11-18T13:00:30;1.40;;;1.20;;
7575;SDS011;3829;50.798;4.358;2023-11-18T13:02:59;5.90;;;1.50;;
7575;SDS011;3829;50.798;4.358;2023-11-18T13:05:25;1.10;;;1.00;;
7575;SDS011;3829;50.798;4.358;2023-11-18T13:07:55;1.77;;;1.10;;
7575;SDS011;3829;50.798;4.358;2023-11-18T13:10:21;1.60;;;1.37;;
7575;SDS011;3829;50.798;4.358;2023-11-18T13:12:47;1.10;;;1.00;;
7575;SDS011;3829;50.798;4.358;2023-11-18T13:15:12;3.53;;;1.10;;
7575;SDS011;3829;50.798;4.358;2023-11-18T13:17:38;1.90;;;1.00;;
7575;SDS011;3829;50.798;4.358;2023-11-18T13:20:13;4.20;;;1.10;;
7575;SDS011;3829;50.798;4.358;2023-11-18T13:22:39;2.70;;;1.30;;
7575;SDS011;3829;50.798;4.358;2023-11-18T13:25:07;2.83;;;1.10;;
7575;SDS011;3829;50.798;4.358;2023-11-18T13:27:33;2.00;;;1.20;;
7575;SDS011;3829;50.798;4.358;2023-11-18T13:30:01;1.43;;;1.30;;
7575;SDS011;3829;50.798;4.358;2023-11-18T13:32:28;2.00;;;1.10;;
7575;SDS011;3829;50.798;4.358;2023-11-18T13:34:54;1.10;;;0.90;;
7575;SDS011;3829;50.798;4.358;2023-11-18T13:37:20;0.97;;;0.97;;
7575;SDS011;3829;50.798;4.358;2023-11-18T13:39:55;2.90;;;1.00;;
7575;SDS011;3829;50.798;4.358;2023-11-18T13:42:21;1.00;;;0.80;;
7575;SDS011;3829;50.798;4.358;2023-11-18T13:44:51;1.40;;;1.30;;
7575;SDS011;3829;50.798;4.358;2023-11-18T13:47:17;1.00;;;0.90;;
7575;SDS011;3829;50.798;4.358;2023-11-18T13:49:44;0.90;;;0.90;;
7575;SDS011;3829;50.798;4.358;2023-11-18T13:52:12;1.20;;;1.10;;
7575;SDS011;3829;50.798;4.358;2023-11-18T13:54:41;1.10;;;1.00;;
7575;SDS011;3829;50.798;4.358;2023-11-18T13:57:10;1.50;;;1.10;;
7575;SDS011;3829;50.798;4.358;2023-11-18T13:59:36;1.33;;;1.07;;
7575;SDS011;3829;50.798;4.358;2023-11-18T14:02:03;2.73;;;1.10;;
7575;SDS011;3829;50.798;4.358;2023-11-18T14:04:30;1.10;;;1.00;;
7575;SDS011;3829;50.798;4.358;2023-11-18T14:06:58;0.97;;;0.93;;
7575;SDS011;3829;50.798;4.358;2023-11-18T14:09:27;1.10;;;1.10;;
7575;SDS011;3829;50.798;4.358;2023-11-18T14:11:55;0.90;;;0.90;;
7575;SDS011;3829;50.798;4.358;2023-11-18T14:14:21;2.07;;;1.77;;
7575;SDS011;3829;50.798;4.358;2023-11-18T14:16:48;2.00;;;1.10;;
7575;SDS011;3829;50.798;4.358;2023-11-18T14:19:14;1.53;;;1.43;;
7575;SDS011;3829;50.798;4.358;2023-11-18T14:21:40;1.33;;;1.23;;
7575;SDS011;3829;50.798;4.358;2023-11-18T14:24:08;1.20;;;1.10;;
7575;SDS011;3829;50.798;4.358;2023-11-18T14:26:35;1.20;;;1.10;;
7575;SDS011;3829;50.798;4.358;2023-11-18T14:29:01;1.37;;;1.27;;
7575;SDS011;3829;50.798;4.358;2023-11-18T14:31:27;1.50;;;1.30;;
7575;SDS011;3829;50.798;4.358;2023-11-18T14:33:54;1.20;;;1.17;;
7575;SDS011;3829;50.798;4.358;2023-11-18T14:36:23;1.70;;;1.00;;
7575;SDS011;3829;50.798;4.358;2023-11-18T14:38:50;2.33;;;1.13;;
7575;SDS011;3829;50.798;4.358;2023-11-18T14:41:15;2.07;;;1.00;;
7575;SDS011;3829;50.798;4.358;2023-11-18T14:43:42;1.20;;;1.10;;
7575;SDS011;3829;50.798;4.358;2023-11-18T14:46:07;1.30;;;1.20;;
7575;SDS011;3829;50.798;4.358;2023-11-18T14:48:34;2.90;;;1.17;;
7575;SDS011;3829;50.798;4.358;2023-11-18T14:51:00;1.30;;;1.20;;
7575;SDS011;3829;50.798;4.358;2023-11-18T14:53:25;1.10;;;1.00;;
7575;SDS011;3829;50.798;4.358;2023-11-18T14:55:51;1.10;;;1.10;;
7575;SDS011;3829;50.798;4.358;2023-11-18T14:58:16;1.30;;;1.20;;
7575;SDS011;3829;50.798;4.358;2023-11-18T15:00:42;1.43;;;1.33;;
7575;SDS011;3829;50.798;4.358;2023-11-18T15:03:08;1.70;;;1.60;;
7575;SDS011;3829;50.798;4.358;2023-11-18T15:05:34;1.77;;;1.40;;
7575;SDS011;3829;50.798;4.358;2023-11-18T15:08:00;1.50;;;1.40;;
7575;SDS011;3829;50.798;4.358;2023-11-18T15:10:26;1.20;;;1.00;;
7575;SDS011;3829;50.798;4.358;2023-11-18T15:12:53;1.87;;;1.47;;
7575;SDS011;3829;50.798;4.358;2023-11-18T15:15:23;1.30;;;1.20;;
7575;SDS011;3829;50.798;4.358;2023-11-18T15:17:56;1.27;;;1.10;;
7575;SDS011;3829;50.798;4.358;2023-11-18T15:20:24;1.20;;;1.10;;
7575;SDS011;3829;50.798;4.358;2023-11-18T15:22:50;1.23;;;1.13;;
7575;SDS011;3829;50.798;4.358;2023-11-18T15:25:15;1.40;;;1.30;;